Time;durP1;ratioP1;P1;durP2;ratioP2;P2;SDS_P1;SDS_P2;PMS_P1;PMS_P2;Temp;Humidity;BMP_temperature;BMP_pressure;BME280_temperature;BME280_humidity;BME280_pressure;Samples;Min_cycle;Max_cycle;Signal;HPM_P1;HPM_P2
2022/11/30 00:00:13;;;;;;;26.60;20.23;;;13.10;65.30;;;;;;5029463;28;20866;-57
2022/11/30 00:02:39;;;;;;;23.33;17.30;;;13.20;65.40;;;;;;5025596;28;20302;-58
2022/11/30 00:05:05;;;;;;;24.43;18.77;;;13.20;65.30;;;;;;5023886;28;20896;-58
2022/11/30 00:07:31;;;;;;;25.03;19.40;;;13.20;65.10;;;;;;5032175;28;20220;-56
2022/11/30 00:09:56;;;;;;;28.43;18.97;;;13.20;65.10;;;;;;5030753;28;20440;-56
2022/11/30 00:12:22;;;;;;;24.70;18.70;;;13.20;65.10;;;;;;5025105;28;20301;-56
2022/11/30 00:14:47;;;;;;;24.83;19.00;;;13.20;65.00;;;;;;5024137;28;20293;-55
2022/11/30 00:17:13;;;;;;;24.43;18.33;;;13.20;64.90;;;;;;5023954;28;20202;-56
2022/11/30 00:19:39;;;;;;;29.20;18.53;;;13.20;64.90;;;;;;5026203;28;20235;-55
2022/11/30 00:22:04;;;;;;;24.00;17.57;;;13.20;64.70;;;;;;5025387;28;20439;-56
2022/11/30 00:24:30;;;;;;;27.63;20.27;;;13.20;65.40;;;;;;5025894;28;20672;-56
2022/11/30 00:26:56;;;;;;;24.40;18.43;;;13.20;64.70;;;;;;5027646;28;20278;-56
2022/11/30 00:29:21;;;;;;;25.97;18.60;;;13.20;64.60;;;;;;5019624;28;20198;-56
2022/11/30 00:31:47;;;;;;;24.70;18.80;;;13.20;64.60;;;;;;5021422;28;20201;-56
2022/11/30 00:34:12;;;;;;;25.77;18.67;;;13.20;64.60;;;;;;5025282;28;20614;-56
2022/11/30 00:36:38;;;;;;;23.60;19.20;;;13.20;64.70;;;;;;5027063;28;20198;-56
2022/11/30 00:39:03;;;;;;;23.83;18.90;;;13.20;64.60;;;;;;5017844;28;20192;-56
2022/11/30 00:41:29;;;;;;;27.03;18.20;;;13.20;64.60;;;;;;5023559;28;20215;-56
2022/11/30 00:43:54;;;;;;;24.70;17.67;;;13.20;64.40;;;;;;5028266;28;20197;-56
2022/11/30 00:46:20;;;;;;;23.83;18.83;;;13.20;64.40;;;;;;5026210;28;20215;-56
2022/11/30 00:48:46;;;;;;;24.63;17.73;;;13.20;64.40;;;;;;5029188;28;20221;-56
2022/11/30 00:51:12;;;;;;;22.57;16.97;;;13.20;64.40;;;;;;5022850;28;20192;-56
2022/11/30 00:53:38;;;;;;;22.77;16.37;;;13.20;64.40;;;;;;5022317;28;20720;-56
2022/11/30 00:56:06;;;;;;;22.40;16.60;;;13.10;64.50;;;;;;5029046;28;20458;-57
2022/11/30 00:58:32;;;;;;;21.03;16.70;;;13.10;64.50;;;;;;5028856;28;20447;-56
2022/11/30 01:00:58;;;;;;;21.00;17.10;;;13.10;64.80;;;;;;5008759;28;20809;-56
2022/11/30 01:03:24;;;;;;;22.33;17.70;;;13.10;64.30;;;;;;5024541;28;20268;-56
2022/11/30 01:05:49;;;;;;;24.23;16.73;;;13.10;64.30;;;;;;5028058;28;20189;-56
2022/11/30 01:08:15;;;;;;;22.10;16.13;;;13.10;64.20;;;;;;5027575;28;20229;-56
2022/11/30 01:10:43;;;;;;;23.20;16.70;;;13.10;64.30;;;;;;5020285;28;20618;-55
2022/11/30 01:13:10;;;;;;;21.07;17.87;;;13.10;64.40;;;;;;5023772;28;20597;-56
2022/11/30 01:15:38;;;;;;;22.00;16.70;;;13.10;64.50;;;;;;5018472;28;20475;-57
2022/11/30 01:18:05;;;;;;;22.40;16.33;;;13.00;64.50;;;;;;5020554;28;20446;-57
2022/11/30 01:20:30;;;;;;;22.87;17.20;;;13.00;64.50;;;;;;5026847;28;20558;-57
2022/11/30 01:22:56;;;;;;;21.90;15.90;;;13.00;64.50;;;;;;5024855;28;20547;-57
2022/11/30 01:25:22;;;;;;;22.67;16.77;;;13.00;64.60;;;;;;5024681;28;20189;-57
2022/11/30 01:27:48;;;;;;;23.27;16.93;;;13.00;64.50;;;;;;5020499;28;20217;-57
2022/11/30 01:30:14;;;;;;;22.07;16.97;;;13.00;64.40;;;;;;5020939;28;20499;-57
2022/11/30 01:32:39;;;;;;;22.50;15.27;;;13.00;64.40;;;;;;5022782;28;20938;-57
2022/11/30 01:35:05;;;;;;;19.67;16.20;;;13.00;64.40;;;;;;5024289;28;20201;-56
2022/11/30 01:37:31;;;;;;;21.67;15.53;;;13.00;64.40;;;;;;5021776;28;20202;-57
2022/11/30 01:39:56;;;;;;;18.50;14.43;;;13.00;64.30;;;;;;5026485;28;20475;-57
2022/11/30 01:42:22;;;;;;;19.40;16.00;;;13.00;64.30;;;;;;5026613;28;20194;-57
2022/11/30 01:44:48;;;;;;;18.60;14.57;;;13.00;64.10;;;;;;5031373;28;20207;-57
2022/11/30 01:47:13;;;;;;;23.33;16.80;;;13.00;64.10;;;;;;5028496;28;20227;-57
2022/11/30 01:49:44;;;;;;;20.10;15.53;;;13.00;64.20;;;;;;5023896;28;20204;-57
2022/11/30 01:52:18;;;;;;;19.23;14.40;;;13.00;64.20;;;;;;5021797;28;20227;-57
2022/11/30 01:55:00;;;;;;;17.83;13.53;;;13.00;64.30;;;;;;5023115;28;20487;-57
2022/11/30 01:57:33;;;;;;;17.13;14.20;;;13.00;64.40;;;;;;5024280;28;20526;-57
2022/11/30 02:00:01;;;;;;;19.17;14.33;;;12.90;64.40;;;;;;5014861;28;20495;-57
2022/11/30 02:02:53;;;;;;;18.93;14.43;;;12.90;64.50;;;;;;5022937;28;20439;-57
2022/11/30 02:05:19;;;;;;;18.67;15.10;;;12.90;64.60;;;;;;5025158;28;20440;-57
2022/11/30 02:07:45;;;;;;;18.40;14.43;;;12.90;64.60;;;;;;5022421;28;20499;-57
2022/11/30 02:10:20;;;;;;;19.40;14.47;;;12.90;64.70;;;;;;5022994;28;20448;-57
2022/11/30 02:12:46;;;;;;;19.60;14.47;;;12.90;64.90;;;;;;5024080;28;20338;-57
2022/11/30 02:15:19;;;;;;;19.70;15.07;;;12.90;65.00;;;;;;5020473;28;20456;-57
2022/11/30 02:18:18;;;;;;;21.00;15.47;;;12.90;64.90;;;;;;5021919;28;20202;-57
2022/11/30 02:21:09;;;;;;;21.77;15.83;;;12.90;64.80;;;;;;5022919;28;20436;-57
2022/11/30 02:23:37;;;;;;;19.90;15.23;;;12.90;64.80;;;;;;5022292;28;20440;-57
2022/11/30 02:26:38;;;;;;;19.07;14.50;;;12.90;64.70;;;;;;5024708;28;21022;-57
2022/11/30 02:29:17;;;;;;;24.10;15.23;;;12.90;64.60;;;;;;5023558;28;20452;-57
2022/11/30 02:32:16;;;;;;;17.60;14.10;;;12.80;64.60;;;;;;5022305;28;20443;-57
2022/11/30 02:34:45;;;;;;;18.73;15.23;;;12.80;64.90;;;;;;5013805;28;20452;-57
2022/11/30 02:37:13;;;;;;;17.60;14.40;;;12.80;64.90;;;;;;5019632;28;20535;-57
2022/11/30 02:39:39;;;;;;;18.30;14.63;;;12.80;64.90;;;;;;5014382;28;20507;-57
2022/11/30 02:42:09;;;;;;;20.50;14.57;;;12.90;64.90;;;;;;5025487;28;20529;-57
2022/11/30 02:44:35;;;;;;;17.50;14.10;;;12.90;64.80;;;;;;5026521;28;20319;-58
2022/11/30 02:47:33;;;;;;;18.93;14.60;;;12.90;64.80;;;;;;5024056;28;20483;-57
2022/11/30 02:49:59;;;;;;;20.43;14.30;;;12.90;64.80;;;;;;5024002;28;20229;-57
2022/11/30 02:52:26;;;;;;;16.87;13.80;;;12.80;64.70;;;;;;5017874;28;20479;-58
2022/11/30 02:54:58;;;;;;;16.13;13.47;;;12.80;64.80;;;;;;5028138;28;20233;-57
2022/11/30 02:57:23;;;;;;;17.63;13.60;;;12.80;65.00;;;;;;5028786;28;20436;-57
2022/11/30 02:59:49;;;;;;;18.40;13.83;;;12.80;65.10;;;;;;5025472;28;20439;-57
2022/11/30 03:02:14;;;;;;;21.27;14.90;;;12.80;65.10;;;;;;5025017;28;20608;-57
2022/11/30 03:04:40;;;;;;;17.67;13.63;;;12.80;65.10;;;;;;5025538;28;20211;-57
2022/11/30 03:07:06;;;;;;;19.77;14.83;;;12.80;65.10;;;;;;5029104;28;20271;-57
2022/11/30 03:09:31;;;;;;;18.90;14.70;;;12.80;65.10;;;;;;5026674;28;20228;-56
2022/11/30 03:11:57;;;;;;;15.50;13.60;;;12.80;65.10;;;;;;5028995;28;20189;-57
2022/11/30 03:14:22;;;;;;;19.40;13.23;;;12.80;65.10;;;;;;5027146;28;20193;-57
2022/11/30 03:16:48;;;;;;;20.27;13.67;;;12.80;65.10;;;;;;5028884;28;20558;-56
2022/11/30 03:19:14;;;;;;;17.30;13.10;;;12.80;65.10;;;;;;5024306;28;20965;-57
2022/11/30 03:21:39;;;;;;;18.53;14.80;;;12.80;65.20;;;;;;5039889;28;20197;-56
2022/11/30 03:24:05;;;;;;;18.70;13.93;;;12.80;65.20;;;;;;5024773;28;20637;-57
2022/11/30 03:26:31;;;;;;;16.40;12.93;;;12.80;65.10;;;;;;5017785;28;20185;-57
2022/11/30 03:28:57;;;;;;;16.10;13.33;;;12.80;65.10;;;;;;5029829;28;20228;-57
2022/11/30 03:31:22;;;;;;;18.23;13.90;;;12.90;65.20;;;;;;5028599;28;20845;-57
2022/11/30 03:33:48;;;;;;;18.23;14.20;;;12.80;65.10;;;;;;5029227;28;20193;-57
2022/11/30 03:36:13;;;;;;;18.30;13.40;;;12.90;65.20;;;;;;5022465;28;20212;-57
2022/11/30 03:38:39;;;;;;;16.27;12.90;;;12.90;65.20;;;;;;5026678;28;20560;-57
2022/11/30 03:41:10;;;;;;;17.90;13.90;;;12.90;65.10;;;;;;5031354;28;20550;-57
2022/11/30 03:43:36;;;;;;;15.90;12.30;;;12.90;65.10;;;;;;5024900;28;20205;-57
2022/11/30 03:46:02;;;;;;;17.27;12.77;;;12.90;65.20;;;;;;5017590;28;20459;-57
2022/11/30 03:48:28;;;;;;;15.53;13.33;;;12.90;64.90;;;;;;5022321;28;20225;-57
2022/11/30 03:50:53;;;;;;;16.27;12.67;;;12.90;64.90;;;;;;5025732;28;20462;-57
2022/11/30 03:53:21;;;;;;;17.03;12.87;;;12.80;65.00;;;;;;5029429;28;20650;-56
2022/11/30 03:55:52;;;;;;;15.80;12.63;;;12.80;65.10;;;;;;5028753;28;20201;-56
2022/11/30 03:58:17;;;;;;;17.30;12.13;;;12.90;66.10;;;;;;5023096;28;20476;-56
2022/11/30 04:00:43;;;;;;;16.10;12.27;;;12.80;65.20;;;;;;5022093;28;20436;-57
2022/11/30 04:03:08;;;;;;;14.63;11.27;;;12.80;65.20;;;;;;5007947;28;20189;-57
2022/11/30 04:05:34;;;;;;;14.47;12.30;;;12.90;65.30;;;;;;5025011;28;20193;-57
2022/11/30 04:08:00;;;;;;;16.30;12.10;;;12.90;65.30;;;;;;5033701;28;20671;-57
2022/11/30 04:10:25;;;;;;;15.50;12.73;;;12.90;65.20;;;;;;5023839;28;20206;-57
2022/11/30 04:12:51;;;;;;;14.93;11.83;;;12.90;65.10;;;;;;5028231;28;20201;-57
2022/11/30 04:15:16;;;;;;;16.50;11.40;;;12.90;65.10;;;;;;5027677;28;20225;-56
2022/11/30 04:17:42;;;;;;;16.40;13.53;;;12.90;65.10;;;;;;5025194;28;20556;-57
2022/11/30 04:20:08;;;;;;;17.63;12.20;;;12.80;65.00;;;;;;5021544;28;20273;-57
2022/11/30 04:22:33;;;;;;;14.70;11.83;;;12.90;65.10;;;;;;5026944;28;20189;-57
2022/11/30 04:24:59;;;;;;;15.97;12.73;;;12.90;64.90;;;;;;5024789;28;20193;-57
2022/11/30 04:27:26;;;;;;;14.93;12.37;;;12.90;64.90;;;;;;5022642;28;20661;-57
2022/11/30 04:29:52;;;;;;;16.70;11.30;;;12.90;65.00;;;;;;5020714;28;20252;-57
2022/11/30 04:32:17;;;;;;;13.67;11.57;;;12.90;65.00;;;;;;5024128;28;20439;-57
2022/11/30 04:34:43;;;;;;;12.43;10.30;;;12.90;65.10;;;;;;5026715;28;20703;-56
2022/11/30 04:37:12;;;;;;;15.40;11.50;;;12.90;65.10;;;;;;5025043;28;20709;-59
2022/11/30 04:39:37;;;;;;;15.90;11.63;;;12.90;65.10;;;;;;5025229;28;20197;-57
2022/11/30 04:42:03;;;;;;;13.97;10.83;;;12.80;65.10;;;;;;5021183;28;20444;-56
2022/11/30 04:44:28;;;;;;;12.30;10.40;;;12.90;65.20;;;;;;5023147;28;20205;-57
2022/11/30 04:46:54;;;;;;;16.70;10.83;;;12.90;65.20;;;;;;5022755;28;20228;-56
2022/11/30 04:49:20;;;;;;;13.93;10.80;;;12.90;65.10;;;;;;5022212;28;20208;-57
2022/11/30 04:51:45;;;;;;;11.93;10.50;;;12.90;65.10;;;;;;5022153;28;20193;-57
2022/11/30 04:54:11;;;;;;;17.77;11.90;;;12.90;65.20;;;;;;5027337;28;20235;-57
2022/11/30 04:56:36;;;;;;;17.00;10.20;;;12.90;65.20;;;;;;5029860;28;20205;-57
2022/11/30 04:59:02;;;;;;;13.00;10.63;;;12.90;65.10;;;;;;5028665;28;20591;-57
2022/11/30 05:01:27;;;;;;;14.50;10.93;;;12.90;65.00;;;;;;5022278;28;20197;-57
2022/11/30 05:03:53;;;;;;;12.70;10.47;;;12.80;65.00;;;;;;5024746;28;20197;-57
2022/11/30 05:06:19;;;;;;;12.93;10.80;;;12.80;65.00;;;;;;5026040;28;20200;-58
2022/11/30 05:08:44;;;;;;;11.17;9.97;;;12.90;65.20;;;;;;5029634;28;20219;-57
2022/11/30 05:11:10;;;;;;;14.03;11.17;;;12.80;65.10;;;;;;5029430;28;20196;-57
2022/11/30 05:13:36;;;;;;;15.53;12.10;;;12.80;65.10;;;;;;5021114;28;20197;-57
2022/11/30 05:16:01;;;;;;;12.90;9.50;;;12.90;65.30;;;;;;5023585;28;20233;-57
2022/11/30 05:18:28;;;;;;;12.50;9.80;;;12.80;65.20;;;;;;5020111;28;20193;-57
2022/11/30 05:20:53;;;;;;;11.53;10.17;;;12.80;65.30;;;;;;5023699;28;20192;-57
2022/11/30 05:23:20;;;;;;;12.03;10.17;;;12.80;65.30;;;;;;5015726;28;20448;-57
2022/11/30 05:25:46;;;;;;;13.27;10.73;;;12.80;65.20;;;;;;5022933;28;20197;-57
2022/11/30 05:28:12;;;;;;;12.10;10.23;;;12.80;65.20;;;;;;5022820;28;21045;-57
2022/11/30 05:30:39;;;;;;;13.47;11.50;;;12.80;65.20;;;;;;5021914;28;20582;-57
2022/11/30 05:33:05;;;;;;;12.23;9.37;;;12.80;65.20;;;;;;5026422;28;20444;-57
2022/11/30 05:35:30;;;;;;;12.37;10.20;;;12.80;65.20;;;;;;5027271;28;20517;-57
2022/11/30 05:37:56;;;;;;;13.13;9.93;;;12.80;65.10;;;;;;5020509;28;20224;-57
2022/11/30 05:40:22;;;;;;;12.50;10.73;;;12.80;65.20;;;;;;5022883;28;20189;-57
2022/11/30 05:42:53;;;;;;;12.67;10.03;;;12.80;65.00;;;;;;5022387;28;20221;-57
2022/11/30 05:45:18;;;;;;;12.03;9.97;;;12.80;64.90;;;;;;5021898;28;20200;-57
2022/11/30 05:47:44;;;;;;;12.23;10.70;;;12.80;65.80;;;;;;5018248;28;20824;-57
2022/11/30 05:50:10;;;;;;;15.10;10.33;;;12.90;64.90;;;;;;5023820;28;20188;-57
2022/11/30 05:52:35;;;;;;;12.73;9.90;;;12.80;65.00;;;;;;5024183;28;20201;-57
2022/11/30 05:55:01;;;;;;;12.47;10.23;;;12.80;65.10;;;;;;5020043;28;20239;-57
2022/11/30 05:57:26;;;;;;;14.00;11.93;;;12.90;65.90;;;;;;5028502;28;20193;-57
2022/11/30 05:59:52;;;;;;;14.07;11.37;;;12.80;65.00;;;;;;5020374;28;20284;-57
2022/11/30 06:02:18;;;;;;;17.40;11.23;;;12.80;65.00;;;;;;5021461;28;20683;-57
2022/11/30 06:04:43;;;;;;;12.50;11.20;;;12.80;65.00;;;;;;5023897;28;20268;-57
2022/11/30 06:07:10;;;;;;;13.20;11.33;;;12.80;65.10;;;;;;5020729;28;20578;-57
2022/11/30 06:09:37;;;;;;;13.03;11.63;;;12.80;65.10;;;;;;5019467;28;20208;-57
2022/11/30 06:12:03;;;;;;;15.60;13.03;;;12.80;65.40;;;;;;5023632;28;20986;-57
2022/11/30 06:14:28;;;;;;;13.77;12.03;;;12.80;65.50;;;;;;5021362;28;20456;-57
2022/11/30 06:16:54;;;;;;;12.77;11.13;;;12.80;65.70;;;;;;5025585;28;20251;-57
2022/11/30 06:19:20;;;;;;;16.07;11.40;;;12.80;65.80;;;;;;5024616;28;21020;-57
2022/11/30 06:21:45;;;;;;;13.20;11.60;;;12.80;65.70;;;;;;5029478;28;20562;-56
2022/11/30 06:24:11;;;;;;;16.33;11.90;;;12.80;65.60;;;;;;5025350;28;20200;-57
2022/11/30 06:26:36;;;;;;;12.17;10.67;;;12.80;65.70;;;;;;5029948;28;20201;-57
2022/11/30 06:29:02;;;;;;;15.30;11.33;;;12.90;66.20;;;;;;5023080;28;20237;-57
2022/11/30 06:31:30;;;;;;;11.87;9.90;;;13.10;67.10;;;;;;5024126;28;20197;-57
2022/11/30 06:33:56;;;;;;;13.23;10.70;;;13.30;66.50;;;;;;5031504;28;20591;-57
2022/11/30 06:36:22;;;;;;;13.00;9.87;;;13.50;66.10;;;;;;5030291;28;20438;-57
2022/11/30 06:38:48;;;;;;;10.23;9.10;;;13.70;65.60;;;;;;5027973;28;21375;-57
2022/11/30 06:41:14;;;;;;;12.47;9.70;;;13.80;65.10;;;;;;5026538;28;20935;-57
2022/11/30 06:43:40;;;;;;;10.90;9.43;;;13.90;64.70;;;;;;5023157;28;20444;-57
2022/11/30 06:46:06;;;;;;;11.63;9.80;;;14.00;63.90;;;;;;5025626;28;20189;-57
2022/11/30 06:48:32;;;;;;;11.93;9.70;;;14.20;63.30;;;;;;5025450;28;20579;-57
2022/11/30 06:50:59;;;;;;;10.87;9.33;;;14.30;62.90;;;;;;5026899;28;20459;-57
2022/11/30 06:53:25;;;;;;;14.87;10.17;;;14.30;62.30;;;;;;5030152;28;20823;-57
2022/11/30 06:55:51;;;;;;;13.80;11.50;;;14.40;61.70;;;;;;5029851;28;20949;-57
2022/11/30 06:58:17;;;;;;;14.50;11.17;;;14.40;61.20;;;;;;5032405;28;20439;-57
2022/11/30 07:00:42;;;;;;;17.40;12.20;;;14.50;60.80;;;;;;5028542;28;20558;-57
2022/11/30 07:03:10;;;;;;;16.63;12.47;;;14.40;60.10;;;;;;5030388;28;21130;-57
2022/11/30 07:05:44;;;;;;;13.67;11.00;;;14.30;59.80;;;;;;5026838;28;20193;-57
2022/11/30 07:08:13;;;;;;;14.60;11.40;;;14.20;60.10;;;;;;5025058;28;20854;-57
2022/11/30 07:10:44;;;;;;;16.00;13.50;;;14.20;61.20;;;;;;5029508;28;20440;-57
2022/11/30 07:13:16;;;;;;;14.43;12.83;;;14.10;61.00;;;;;;5033163;28;20443;-57
2022/11/30 07:15:42;;;;;;;13.73;11.97;;;14.10;60.60;;;;;;5027296;28;20451;-57
2022/11/30 07:18:08;;;;;;;16.03;12.30;;;14.10;60.20;;;;;;5032145;28;20451;-57
2022/11/30 07:20:35;;;;;;;15.90;13.03;;;14.00;60.40;;;;;;5027780;28;20435;-57
2022/11/30 07:26:05;;;;;;;14.50;12.90;;;14.00;60.50;;;;;;5031747;28;20555;-57
2022/11/30 07:28:38;;;;;;;15.70;12.50;;;13.90;60.40;;;;;;5038501;28;21005;-57
2022/11/30 07:31:27;;;;;;;17.70;12.70;;;14.00;60.90;;;;;;5030800;28;20450;-57
2022/11/30 07:33:54;;;;;;;18.70;14.13;;;14.00;60.80;;;;;;5019146;28;20483;-57
2022/11/30 07:36:21;;;;;;;15.83;12.97;;;14.00;60.20;;;;;;5025914;28;20783;-57
2022/11/30 07:38:48;;;;;;;15.73;13.53;;;13.90;60.00;;;;;;5033583;28;20436;-57
2022/11/30 07:41:14;;;;;;;17.90;14.03;;;13.90;60.10;;;;;;5032782;28;20452;-57
2022/11/30 07:43:40;;;;;;;22.00;13.33;;;13.80;59.90;;;;;;5031972;28;20436;-57
2022/11/30 07:46:06;;;;;;;21.90;13.20;;;13.80;59.90;;;;;;5029491;28;20440;-57
2022/11/30 07:48:32;;;;;;;17.60;13.70;;;13.60;59.90;;;;;;5031572;28;20545;-57
2022/11/30 07:51:06;;;;;;;19.50;14.60;;;13.50;60.20;;;;;;5022617;28;20209;-57
2022/11/30 07:53:32;;;;;;;17.00;13.13;;;13.50;60.20;;;;;;5026120;28;20626;-57
2022/11/30 07:56:06;;;;;;;17.07;12.90;;;13.60;60.30;;;;;;5028058;28;20459;-57
2022/11/30 07:58:32;;;;;;;18.10;13.40;;;13.50;61.00;;;;;;5027730;28;20919;-57
2022/11/30 08:01:02;;;;;;;21.07;16.10;;;13.40;60.70;;;;;;5030064;28;20448;-58
2022/11/30 08:03:29;;;;;;;22.60;15.80;;;13.50;60.40;;;;;;5027052;28;20443;-57
2022/11/30 08:06:00;;;;;;;19.23;13.40;;;13.50;60.00;;;;;;5023367;28;20443;-57
2022/11/30 08:08:29;;;;;;;18.73;14.80;;;13.40;59.80;;;;;;5026279;28;20484;-57
2022/11/30 08:10:58;;;;;;;17.70;13.40;;;13.50;60.90;;;;;;5025917;28;20784;-57
2022/11/30 08:13:24;;;;;;;15.53;13.50;;;13.60;60.60;;;;;;5030715;28;20779;-57
2022/11/30 08:15:50;;;;;;;17.87;13.60;;;13.70;60.10;;;;;;5027662;28;20448;-57
2022/11/30 08:18:16;;;;;;;17.50;13.40;;;13.80;59.90;;;;;;5026642;28;20257;-57
2022/11/30 08:20:41;;;;;;;21.43;14.43;;;13.80;59.60;;;;;;5021936;28;20799;-56
2022/11/30 08:23:07;;;;;;;18.00;14.40;;;13.80;59.30;;;;;;5025641;28;20251;-57
2022/11/30 08:25:35;;;;;;;18.40;13.77;;;13.80;59.30;;;;;;5022629;28;20247;-57
2022/11/30 08:28:01;;;;;;;21.17;14.60;;;13.80;59.50;;;;;;5030636;28;20246;-57
2022/11/30 08:30:26;;;;;;;16.37;14.17;;;13.60;59.50;;;;;;5030227;28;20428;-57
2022/11/30 08:32:52;;;;;;;18.47;15.03;;;13.50;59.80;;;;;;5026156;28;20219;-57
2022/11/30 08:35:17;;;;;;;21.60;14.97;;;13.50;60.30;;;;;;5020496;28;20721;-57
2022/11/30 08:37:43;;;;;;;20.13;14.53;;;13.60;60.10;;;;;;5023255;28;20189;-58
2022/11/30 08:40:09;;;;;;;23.03;16.83;;;13.60;60.10;;;;;;5026809;28;20182;-57
2022/11/30 08:42:35;;;;;;;18.70;15.27;;;13.70;60.50;;;;;;5031030;28;20201;-57
2022/11/30 08:45:01;;;;;;;20.97;14.40;;;13.70;60.60;;;;;;5026098;28;20451;-56
2022/11/30 08:47:29;;;;;;;19.43;15.03;;;13.70;60.00;;;;;;5026906;28;20488;-58
2022/11/30 08:49:54;;;;;;;20.50;14.63;;;13.80;59.60;;;;;;5023689;28;20779;-55
2022/11/30 08:52:20;;;;;;;24.10;16.90;;;13.50;59.20;;;;;;5025363;28;20444;-57
2022/11/30 08:54:46;;;;;;;17.30;12.97;;;13.60;59.70;;;;;;5021039;28;20471;-57
2022/11/30 08:57:14;;;;;;;19.70;14.47;;;13.70;59.30;;;;;;5022731;28;20193;-56
2022/11/30 08:59:40;;;;;;;19.93;14.60;;;13.90;58.90;;;;;;5028984;28;20491;-57
2022/11/30 09:02:12;;;;;;;19.53;14.67;;;13.80;58.50;;;;;;5028280;28;21304;-57
2022/11/30 09:04:37;;;;;;;17.97;13.90;;;13.70;58.80;;;;;;5027787;28;20189;-57
2022/11/30 09:07:03;;;;;;;17.30;13.43;;;13.70;58.70;;;;;;5023174;28;20977;-55
2022/11/30 09:09:28;;;;;;;19.00;14.10;;;13.60;59.10;;;;;;5027060;28;20196;-56
2022/11/30 09:11:54;;;;;;;17.93;13.43;;;13.50;58.50;;;;;;5029677;28;20189;-56
2022/11/30 09:14:20;;;;;;;20.20;15.77;;;13.30;59.40;;;;;;5031699;28;20218;-55
2022/11/30 09:16:45;;;;;;;21.60;16.20;;;13.20;59.60;;;;;;5014147;28;20232;-55
2022/11/30 09:19:11;;;;;;;22.20;14.83;;;12.80;59.30;;;;;;5025019;28;20225;-56
2022/11/30 09:21:36;;;;;;;20.00;15.70;;;12.50;61.20;;;;;;5027279;28;20197;-56
2022/11/30 09:24:02;;;;;;;18.90;14.07;;;12.70;61.30;;;;;;5029439;28;20188;-56
2022/11/30 09:26:28;;;;;;;21.53;14.80;;;12.70;60.60;;;;;;5026342;28;20197;-56
2022/11/30 09:28:53;;;;;;;24.57;16.70;;;12.90;60.60;;;;;;5025594;28;22060;-57
2022/11/30 09:31:25;;;;;;;19.63;16.10;;;13.10;59.90;;;;;;5020131;28;20220;-58
2022/11/30 09:33:52;;;;;;;20.20;15.30;;;13.30;59.40;;;;;;5029338;28;20649;-58
2022/11/30 09:36:20;;;;;;;19.43;14.47;;;13.40;59.00;;;;;;5027557;28;20550;-58
2022/11/30 09:38:46;;;;;;;24.00;16.53;;;13.00;59.10;;;;;;5027771;28;20539;-56
2022/11/30 09:41:28;;;;;;;19.87;15.40;;;13.00;60.60;;;;;;5026497;28;20440;-57
2022/11/30 09:44:10;;;;;;;19.80;15.10;;;13.10;60.40;;;;;;5027549;28;20947;-55
2022/11/30 09:46:42;;;;;;;18.17;12.97;;;13.10;60.10;;;;;;5027139;28;20451;-56
2022/11/30 09:49:22;;;;;;;20.13;15.03;;;13.10;59.90;;;;;;5027439;28;20870;-57
2022/11/30 09:51:51;;;;;;;22.00;15.13;;;12.90;59.80;;;;;;5026732;28;20448;-57
2022/11/30 09:54:37;;;;;;;20.17;15.30;;;13.10;60.30;;;;;;5022215;28;20606;-57
2022/11/30 09:57:25;;;;;;;18.63;13.77;;;13.20;59.40;;;;;;5028200;28;20589;-58
2022/11/30 09:59:57;;;;;;;19.00;14.40;;;13.20;59.10;;;;;;5022586;28;20514;-57
2022/11/30 10:02:32;;;;;;;21.93;14.43;;;13.40;59.20;;;;;;5026932;28;20454;-58
2022/11/30 10:04:59;;;;;;;18.70;14.10;;;13.40;58.50;;;;;;5026009;28;20466;-57
2022/11/30 10:07:55;;;;;;;16.67;14.03;;;13.60;59.00;;;;;;5028294;28;20571;-57
2022/11/30 10:10:31;;;;;;;19.60;14.20;;;13.70;58.60;;;;;;5026672;28;20451;-57
2022/11/30 10:13:27;;;;;;;16.00;12.70;;;13.80;58.30;;;;;;5017369;28;20558;-57
2022/11/30 10:15:58;;;;;;;18.10;13.27;;;13.70;57.70;;;;;;5027167;28;20526;-57
2022/11/30 10:18:47;;;;;;;18.17;13.37;;;13.60;57.20;;;;;;5029100;28;20444;-57
2022/11/30 10:21:36;;;;;;;16.37;13.70;;;13.60;57.50;;;;;;5029511;28;20827;-57
2022/11/30 10:24:27;;;;;;;15.13;12.20;;;13.70;57.80;;;;;;5020423;28;20452;-57
2022/11/30 10:26:57;;;;;;;18.20;14.37;;;13.70;57.70;;;;;;5034655;28;20815;-57
2022/11/30 10:29:23;;;;;;;18.50;13.67;;;13.80;57.60;;;;;;5005040;28;20448;-57
2022/11/30 10:31:55;;;;;;;17.57;13.80;;;14.00;57.80;;;;;;5019396;28;20460;-57
2022/11/30 10:34:23;;;;;;;17.63;13.70;;;14.00;57.20;;;;;;5027342;28;20198;-57
2022/11/30 10:37:26;;;;;;;18.90;14.83;;;14.10;57.00;;;;;;5038897;28;20539;-57
2022/11/30 10:40:00;;;;;;;18.23;13.07;;;14.10;57.00;;;;;;5026844;28;20448;-57
2022/11/30 10:42:41;;;;;;;19.87;14.33;;;14.10;57.20;;;;;;5027005;28;20539;-57
2022/11/30 10:45:19;;;;;;;16.57;13.10;;;14.10;57.40;;;;;;5023901;28;20494;-57
2022/11/30 10:47:57;;;;;;;21.17;12.73;;;14.10;57.30;;;;;;5020964;28;20539;-57
2022/11/30 10:50:26;;;;;;;16.77;13.43;;;14.00;56.80;;;;;;5021010;28;20436;-57
2022/11/30 10:52:55;;;;;;;15.90;11.87;;;14.00;57.40;;;;;;5036392;28;20431;-57
2022/11/30 10:55:23;;;;;;;18.20;15.10;;;14.00;57.30;;;;;;5027812;28;20806;-57
2022/11/30 10:57:54;;;;;;;18.07;13.23;;;14.00;57.10;;;;;;5035615;28;20435;-57
2022/11/30 11:00:20;;;;;;;16.00;12.93;;;14.10;57.00;;;;;;5027995;28;20448;-57
2022/11/30 11:02:48;;;;;;;19.57;14.33;;;14.10;56.70;;;;;;5030125;28;20495;-57
2022/11/30 11:05:18;;;;;;;19.67;14.77;;;14.10;56.60;;;;;;5027740;28;20455;-57
2022/11/30 11:08:02;;;;;;;18.90;14.57;;;14.20;56.60;;;;;;5031013;28;20484;-57
2022/11/30 11:10:42;;;;;;;21.27;13.70;;;14.20;56.60;;;;;;5028106;28;20436;-57
2022/11/30 11:13:19;;;;;;;17.30;13.13;;;14.20;56.70;;;;;;5032946;28;20841;-57
2022/11/30 11:15:57;;;;;;;17.23;14.10;;;14.20;57.00;;;;;;5034774;28;20455;-57
2022/11/30 11:18:25;;;;;;;17.13;12.50;;;14.20;57.00;;;;;;5032499;28;20534;-57
2022/11/30 11:21:03;;;;;;;18.50;14.07;;;14.20;56.80;;;;;;5020902;28;20444;-57
2022/11/30 11:23:42;;;;;;;19.83;14.23;;;14.20;56.70;;;;;;5026098;28;21107;-57
2022/11/30 11:26:19;;;;;;;16.90;13.50;;;14.20;56.50;;;;;;5041478;28;20453;-57
2022/11/30 11:28:51;;;;;;;20.27;15.37;;;14.10;56.50;;;;;;5028488;28;20495;-57
2022/11/30 11:31:45;;;;;;;16.07;13.07;;;14.00;57.10;;;;;;5029960;28;20947;-57
2022/11/30 11:34:25;;;;;;;14.73;12.10;;;14.00;57.10;;;;;;5025056;28;20444;-53
2022/11/30 11:37:05;;;;;;;17.80;13.13;;;14.10;57.00;;;;;;5025762;28;20565;-57
2022/11/30 11:39:30;;;;;;;15.17;12.07;;;14.20;56.70;;;;;;5027529;28;20438;-57
2022/11/30 11:41:56;;;;;;;18.77;13.20;;;14.20;55.80;;;;;;5028565;28;20554;-57
2022/11/30 11:44:25;;;;;;;17.07;11.90;;;14.10;55.60;;;;;;5029500;28;20212;-57
2022/11/30 11:47:04;;;;;;;17.83;13.53;;;14.10;55.70;;;;;;5030276;28;20617;-57
2022/11/30 11:49:37;;;;;;;16.50;11.27;;;14.10;55.90;;;;;;5028985;28;21944;-57
2022/11/30 11:52:07;;;;;;;17.63;12.87;;;14.10;56.20;;;;;;5021683;28;21015;-57
2022/11/30 11:55:00;;;;;;;17.07;13.40;;;14.10;56.40;;;;;;5028977;28;20582;-57
2022/11/30 11:57:53;;;;;;;20.70;13.70;;;14.00;56.90;;;;;;5032225;28;20955;-57
2022/11/30 12:00:23;;;;;;;16.47;12.90;;;14.00;57.10;;;;;;5034478;28;20466;-57
2022/11/30 12:03:13;;;;;;;15.87;13.23;;;14.00;57.00;;;;;;5027622;28;20460;-57
2022/11/30 12:05:52;;;;;;;20.57;13.53;;;14.00;57.00;;;;;;5018010;28;20455;-57
2022/11/30 12:08:41;;;;;;;17.90;13.60;;;14.00;57.10;;;;;;5029125;28;20498;-57
2022/11/30 12:11:30;;;;;;;15.73;12.80;;;14.00;56.90;;;;;;5027118;28;20992;-57
2022/11/30 12:13:56;;;;;;;17.87;13.30;;;14.00;56.80;;;;;;5031052;28;20452;-57
2022/11/30 12:16:55;;;;;;;17.83;13.50;;;14.10;56.70;;;;;;5026806;28;20454;-57
2022/11/30 12:19:31;;;;;;;18.73;14.33;;;14.10;57.30;;;;;;5026703;28;20197;-57
2022/11/30 12:22:13;;;;;;;18.77;13.03;;;14.10;57.70;;;;;;5024134;28;20529;-57
2022/11/30 12:25:09;;;;;;;21.20;15.00;;;14.10;57.70;;;;;;5024644;28;20459;-57
2022/11/30 12:27:57;;;;;;;20.13;14.10;;;14.10;57.60;;;;;;5030382;28;20975;-57
2022/11/30 12:30:34;;;;;;;20.40;15.93;;;14.10;57.70;;;;;;5026063;28;20494;-57
2022/11/30 12:33:09;;;;;;;20.43;15.77;;;14.10;57.60;;;;;;5024391;28;20841;-57
2022/11/30 12:35:46;;;;;;;19.80;14.37;;;14.10;57.30;;;;;;5022356;28;20959;-57
2022/11/30 12:38:33;;;;;;;18.90;16.23;;;14.20;57.40;;;;;;5024487;28;20530;-57
2022/11/30 12:41:20;;;;;;;17.70;13.37;;;14.10;57.20;;;;;;5027632;28;20459;-56
2022/11/30 12:43:51;;;;;;;14.07;11.53;;;14.10;57.50;;;;;;5028499;28;20452;-56